createdAt,value
2017-07-28T00:00:48.263Z,78.43
2017-07-28T00:03:20.590Z,79.25
2017-07-28T00:05:53.090Z,80.21
2017-07-28T00:08:25.447Z,80.13
2017-07-28T00:10:57.765Z,80.61
2017-07-28T00:13:30.193Z,80.39
2017-07-28T00:16:02.689Z,80.74
2017-07-28T00:18:35.094Z,80.76
2017-07-28T00:21:07.573Z,80.91
2017-07-28T00:23:39.872Z,80.92
2017-07-28T00:26:12.299Z,81.43
2017-07-28T00:28:44.715Z,81.95
2017-07-28T00:31:17.128Z,82.24
2017-07-28T00:33:49.623Z,82.08
2017-07-28T00:36:21.983Z,82.30
2017-07-28T00:38:54.332Z,82.16
2017-07-28T00:41:26.793Z,82.22
2017-07-28T00:43:59.216Z,82.14
2017-07-28T00:46:31.592Z,82.56
2017-07-28T00:49:03.787Z,82.91
2017-07-28T00:51:36.111Z,83.09
2017-07-28T00:54:08.270Z,82.95
2017-07-28T00:56:40.714Z,83.22
2017-07-28T00:59:13.017Z,83.32
2017-07-28T01:01:45.534Z,83.46
2017-07-28T01:04:17.954Z,83.32
2017-07-28T01:06:50.487Z,83.22
2017-07-28T01:09:22.859Z,83.68
2017-07-28T01:11:55.250Z,83.92
2017-07-28T01:14:27.668Z,84.22
2017-07-28T01:17:00.050Z,84.04
2017-07-28T01:19:32.353Z,84.13
2017-07-28T01:22:05.486Z,84.06
2017-07-28T01:24:38.370Z,83.93
2017-07-28T01:27:10.626Z,83.66
2017-07-28T01:29:42.939Z,83.54
2017-07-28T01:32:15.402Z,84.12
2017-07-28T01:34:47.896Z,84.14
2017-07-28T01:37:20.450Z,84.23
2017-07-28T01:39:52.866Z,84.37
2017-07-28T01:42:25.195Z,84.46
2017-07-28T01:44:57.664Z,84.68
2017-07-28T01:47:30.191Z,84.79
2017-07-28T01:50:02.235Z,85.07
2017-07-28T01:52:34.644Z,85.20
2017-07-28T01:55:07.007Z,85.55
2017-07-28T01:57:39.443Z,85.78
2017-07-28T02:00:11.932Z,86.20
2017-07-28T02:02:44.431Z,86.53
2017-07-28T02:05:16.812Z,86.63
2017-07-28T02:07:49.291Z,86.35
2017-07-28T02:10:21.632Z,86.52
2017-07-28T02:12:54.027Z,86.61
2017-07-28T02:15:26.288Z,86.40
2017-07-28T02:17:58.675Z,86.11
2017-07-28T02:20:31.124Z,85.90
2017-07-28T02:23:03.611Z,86.01
2017-07-28T02:25:35.862Z,86.11
2017-07-28T02:28:08.267Z,85.72
2017-07-28T02:30:40.724Z,85.48
2017-07-28T02:33:13.303Z,85.39
2017-07-28T02:35:45.423Z,85.12
2017-07-28T02:38:17.704Z,85.25
2017-07-28T02:40:50.099Z,85.43
2017-07-28T02:43:22.567Z,85.10
2017-07-28T02:45:54.867Z,85.02
2017-07-28T02:48:27.198Z,85.64
2017-07-28T02:50:59.747Z,85.72
2017-07-28T02:53:32.085Z,85.09
2017-07-28T02:56:04.439Z,84.81
2017-07-28T02:58:36.916Z,85.27
2017-07-28T03:01:09.351Z,85.16
2017-07-28T03:03:41.795Z,85.49
2017-07-28T03:06:14.159Z,85.62
2017-07-28T03:08:46.512Z,85.83
2017-07-28T03:11:18.835Z,85.83
2017-07-28T03:13:51.371Z,85.85
2017-07-28T03:16:23.679Z,86.06
2017-07-28T03:18:56.028Z,86.01
2017-07-28T03:21:28.431Z,86.30
2017-07-28T03:24:00.906Z,86.57
2017-07-28T03:26:33.348Z,86.32
2017-07-28T03:29:05.751Z,86.17
2017-07-28T03:31:38.098Z,86.25
2017-07-28T03:34:10.504Z,86.81
2017-07-28T03:36:42.942Z,86.69
2017-07-28T03:39:15.266Z,87.14
2017-07-28T03:41:47.682Z,87.29
2017-07-28T03:44:20.063Z,86.82
2017-07-28T03:46:52.471Z,86.94
2017-07-28T03:49:24.976Z,86.90
2017-07-28T03:51:57.279Z,86.81
2017-07-28T03:54:29.704Z,86.47
2017-07-28T03:57:02.139Z,86.54
2017-07-28T03:59:34.744Z,86.35
2017-07-28T04:02:07.120Z,85.84
2017-07-28T04:04:39.488Z,85.92
2017-07-28T04:07:11.807Z,85.76
2017-07-28T04:09:44.291Z,85.62
2017-07-28T04:12:16.686Z,85.35
2017-07-28T04:14:49.087Z,85.09
2017-07-28T04:17:21.541Z,84.75
2017-07-28T04:19:54.016Z,84.01
2017-07-28T04:22:26.379Z,83.60
2017-07-28T04:24:58.770Z,82.81
2017-07-28T04:27:31.131Z,82.64
2017-07-28T04:30:03.622Z,81.27
2017-07-28T04:32:35.914Z,79.25
2017-07-28T04:35:08.359Z,76.15
2017-07-28T04:37:40.627Z,74.07
2017-07-28T04:40:13.018Z,72.64
2017-07-28T04:42:45.467Z,71.41
2017-07-28T04:45:17.835Z,70.72
2017-07-28T04:47:50.223Z,69.92
2017-07-28T04:50:22.703Z,68.62
2017-07-28T04:52:55.054Z,66.54
2017-07-28T04:55:27.446Z,65.00
2017-07-28T04:58:00.011Z,63.51
2017-07-28T05:00:32.415Z,62.79
2017-07-28T05:03:04.874Z,61.25
2017-07-28T05:05:37.366Z,60.45
2017-07-28T05:08:09.831Z,59.00
2017-07-28T05:10:42.220Z,57.69
2017-07-28T05:13:14.547Z,57.15
2017-07-28T05:15:46.942Z,56.42
2017-07-28T05:18:19.332Z,56.10
2017-07-28T05:20:51.878Z,54.53
2017-07-28T05:23:24.307Z,53.50
2017-07-28T05:25:56.710Z,52.20
2017-07-28T05:28:29.046Z,51.37
2017-07-28T05:31:01.543Z,49.84
2017-07-28T05:33:33.981Z,50.11
2017-07-28T05:36:06.467Z,50.77
2017-07-28T05:38:38.916Z,50.43
2017-07-28T05:41:11.394Z,54.17
2017-07-28T05:43:43.844Z,58.25
2017-07-28T05:46:16.351Z,62.27
2017-07-28T05:48:48.803Z,65.77
2017-07-28T05:51:21.233Z,67.85
2017-07-28T05:53:53.573Z,70.36
2017-07-28T05:56:26.088Z,71.10
2017-07-28T05:58:58.404Z,71.29
2017-07-28T06:01:31.025Z,72.33
2017-07-28T06:04:03.344Z,72.48
2017-07-28T06:06:36.003Z,72.54
2017-07-28T06:09:08.439Z,72.41
2017-07-28T06:11:41.112Z,71.43
2017-07-28T06:14:13.279Z,69.81
2017-07-28T06:16:45.645Z,69.17
2017-07-28T06:19:17.980Z,68.59
2017-07-28T06:21:50.498Z,67.25
2017-07-28T06:24:22.963Z,64.98
2017-07-28T06:26:55.460Z,59.75
2017-07-28T06:29:27.915Z,57.75
2017-07-28T06:32:00.527Z,58.87
2017-07-28T06:34:32.866Z,59.35
2017-07-28T06:37:05.235Z,59.37
2017-07-28T06:39:37.496Z,58.65
2017-07-28T06:42:09.898Z,59.18
2017-07-28T06:44:42.354Z,62.26
2017-07-28T06:47:14.759Z,64.48
2017-07-28T06:49:47.159Z,63.16
2017-07-28T06:52:19.522Z,61.83
2017-07-28T06:54:51.950Z,60.79
2017-07-28T06:57:24.380Z,57.56
2017-07-28T06:59:56.719Z,55.68
2017-07-28T07:02:29.086Z,53.85
2017-07-28T07:05:01.435Z,53.69
2017-07-28T07:07:33.872Z,51.54
2017-07-28T07:10:06.134Z,52.70
2017-07-28T07:12:38.532Z,54.43
2017-07-28T07:15:10.878Z,54.27
2017-07-28T07:17:43.196Z,53.38
2017-07-28T07:20:15.433Z,53.09
2017-07-28T07:22:47.872Z,54.85
2017-07-28T07:25:20.136Z,54.86
2017-07-28T07:27:52.541Z,51.91
2017-07-28T07:30:24.878Z,51.00
2017-07-28T07:32:57.367Z,51.27
2017-07-28T07:35:29.643Z,50.23
2017-07-28T07:38:02.225Z,51.22
2017-07-28T07:40:34.771Z,53.58
2017-07-28T07:43:07.175Z,54.25
2017-07-28T07:45:39.787Z,52.13
2017-07-28T07:48:12.102Z,54.92
2017-07-28T07:50:44.583Z,58.34
2017-07-28T07:53:16.971Z,61.33
2017-07-28T07:55:49.142Z,62.45
2017-07-28T07:58:21.591Z,63.43
2017-07-28T08:00:53.999Z,64.22
2017-07-28T08:03:26.376Z,64.19
2017-07-28T08:05:58.635Z,63.80
2017-07-28T08:08:31.086Z,63.85
2017-07-28T08:11:03.559Z,64.60
2017-07-28T08:13:35.982Z,64.87
2017-07-28T08:16:08.319Z,65.68
2017-07-28T08:18:40.702Z,65.97
2017-07-28T08:21:13.196Z,66.86
2017-07-28T08:23:45.655Z,66.24
2017-07-28T08:26:18.074Z,63.64
2017-07-28T08:28:50.481Z,61.84
2017-07-28T08:31:22.887Z,61.42
2017-07-28T08:33:55.171Z,61.69
2017-07-28T08:36:27.427Z,62.34
2017-07-28T08:38:59.685Z,63.12
2017-07-28T08:41:32.063Z,62.89
2017-07-28T08:44:04.552Z,63.03
2017-07-28T08:46:36.964Z,62.44
2017-07-28T08:49:09.464Z,61.17
2017-07-28T08:51:41.852Z,59.63
2017-07-28T08:54:14.231Z,60.81
2017-07-28T08:56:46.636Z,58.31
2017-07-28T08:59:19.083Z,57.81
2017-07-28T09:01:51.558Z,57.07
2017-07-28T09:04:24.232Z,55.33
2017-07-28T09:06:56.303Z,56.90
2017-07-28T09:09:28.680Z,57.08
2017-07-28T09:12:01.160Z,57.28
2017-07-28T09:14:33.536Z,55.53
2017-07-28T09:17:05.798Z,56.37
2017-07-28T09:19:38.307Z,56.58
2017-07-28T09:22:10.618Z,56.28
2017-07-28T09:24:42.931Z,56.78
2017-07-28T09:27:15.287Z,57.06
2017-07-28T09:29:47.684Z,56.53
2017-07-28T09:32:20.019Z,52.01
2017-07-28T09:34:52.439Z,51.63
2017-07-28T09:37:24.888Z,51.37
2017-07-28T09:39:57.480Z,48.90
2017-07-28T09:42:29.873Z,49.60
2017-07-28T09:45:02.320Z,49.10
2017-07-28T09:47:34.587Z,51.16
2017-07-28T09:50:06.987Z,51.95
2017-07-28T09:52:39.322Z,53.79
2017-07-28T09:55:11.708Z,54.61
2017-07-28T09:57:44.063Z,50.68
2017-07-28T10:00:16.555Z,49.46
2017-07-28T10:02:48.935Z,49.60
2017-07-28T10:05:21.395Z,50.64
2017-07-28T10:07:53.764Z,52.13
2017-07-28T10:10:26.127Z,53.26
2017-07-28T10:12:58.456Z,54.80
2017-07-28T10:15:30.796Z,55.51
2017-07-28T10:18:03.194Z,50.79
2017-07-28T10:20:35.492Z,47.43
2017-07-28T10:23:07.810Z,46.85
2017-07-28T10:25:40.212Z,45.25
2017-07-28T10:28:12.558Z,44.93
2017-07-28T10:30:44.964Z,42.03
2017-07-28T10:33:17.299Z,40.67
2017-07-28T10:35:49.736Z,43.00
2017-07-28T10:38:22.159Z,43.21
2017-07-28T10:40:54.631Z,44.79
2017-07-28T10:43:27.003Z,48.17
2017-07-28T10:45:59.387Z,47.88
2017-07-28T10:48:31.816Z,49.26
2017-07-28T10:51:04.244Z,48.90
2017-07-28T10:53:36.692Z,46.95
2017-07-28T10:56:09.075Z,44.10
2017-07-28T10:58:41.427Z,42.00
2017-07-28T11:01:13.940Z,42.33
2017-07-28T11:03:46.416Z,42.99
2017-07-28T11:06:18.672Z,41.38
2017-07-28T11:08:51.027Z,41.46
2017-07-28T11:11:23.495Z,41.90
2017-07-28T11:13:55.934Z,40.56
2017-07-28T11:16:28.379Z,39.68
2017-07-28T11:19:00.839Z,39.94
2017-07-28T11:21:33.239Z,40.94
2017-07-28T11:24:05.494Z,40.98
2017-07-28T11:26:37.971Z,40.22
2017-07-28T11:29:10.356Z,40.48
2017-07-28T11:31:42.722Z,38.31
2017-07-28T11:34:15.096Z,38.89
2017-07-28T11:36:47.588Z,39.49
2017-07-28T11:39:20.023Z,38.16
2017-07-28T11:41:52.548Z,37.44
2017-07-28T11:44:24.995Z,38.47
2017-07-28T11:46:57.414Z,41.10
2017-07-28T11:49:29.845Z,41.16
2017-07-28T11:52:02.268Z,41.23
2017-07-28T11:54:34.615Z,40.03
2017-07-28T11:57:07.018Z,39.01
2017-07-28T11:59:39.276Z,35.86
2017-07-28T12:02:11.752Z,36.06
2017-07-28T12:04:44.175Z,35.74
2017-07-28T12:07:16.664Z,37.40
2017-07-28T12:09:49.007Z,37.18
2017-07-28T12:12:21.260Z,35.05
2017-07-28T12:14:53.666Z,37.51
2017-07-28T12:17:26.054Z,38.38
2017-07-28T12:19:58.455Z,41.15
2017-07-28T12:22:30.894Z,42.53
2017-07-28T12:25:03.209Z,42.64
2017-07-28T12:27:35.599Z,39.49
2017-07-28T12:30:07.938Z,37.37
2017-07-28T12:32:40.385Z,34.65
2017-07-28T12:35:12.863Z,33.99
2017-07-28T12:37:45.271Z,33.41
2017-07-28T12:40:17.696Z,32.98
2017-07-28T12:42:50.221Z,34.49
2017-07-28T12:45:22.572Z,37.68
2017-07-28T12:47:55.068Z,39.87
2017-07-28T12:50:27.407Z,41.88
2017-07-28T12:52:59.745Z,43.95
2017-07-28T12:55:32.066Z,45.45
2017-07-28T12:58:04.563Z,44.30
2017-07-28T13:00:36.898Z,44.39
2017-07-28T13:03:09.394Z,46.44
2017-07-28T13:05:41.751Z,46.01
2017-07-28T13:08:14.136Z,47.51
2017-07-28T13:10:46.530Z,47.80
2017-07-28T13:13:18.996Z,49.13
2017-07-28T13:15:51.454Z,49.36
2017-07-28T13:18:23.835Z,52.97
2017-07-28T13:20:56.085Z,54.05
2017-07-28T13:23:28.470Z,54.28
2017-07-28T13:26:00.920Z,54.14
2017-07-28T13:28:33.300Z,54.81
2017-07-28T13:31:05.692Z,55.64
2017-07-28T13:33:38.083Z,57.27
2017-07-28T13:36:10.531Z,57.43
2017-07-28T13:38:43.039Z,55.73
2017-07-28T13:41:15.288Z,55.28
2017-07-28T13:43:47.659Z,52.79
2017-07-28T13:46:26.261Z,52.50
2017-07-28T13:48:58.555Z,50.18
2017-07-28T13:51:30.820Z,46.59
2017-07-28T13:54:03.315Z,44.68
2017-07-28T13:56:35.642Z,42.70
2017-07-28T13:59:07.956Z,41.46
2017-07-28T14:01:40.327Z,40.72
2017-07-28T14:07:10.211Z,100.00
2017-07-28T14:09:42.423Z,44.78
2017-07-28T14:12:15.191Z,45.84
2017-07-28T14:14:47.671Z,47.03
2017-07-28T14:17:20.151Z,47.66
2017-07-28T14:19:52.932Z,47.46
2017-07-28T14:22:24.946Z,48.27
2017-07-28T14:24:57.259Z,49.81
2017-07-28T14:27:29.758Z,50.60
2017-07-28T14:30:02.315Z,50.98
2017-07-28T14:32:34.827Z,52.25
2017-07-28T14:35:07.266Z,52.24
2017-07-28T14:37:39.859Z,51.95
2017-07-28T14:40:12.235Z,52.33
2017-07-28T15:48:49.519Z,54.42
2017-07-28T15:51:21.982Z,100.00
2017-07-28T15:56:04.884Z,51.18
2017-07-28T15:58:37.026Z,100.00
2017-07-28T16:01:09.355Z,49.53
2017-07-28T16:03:41.844Z,49.89
2017-07-28T16:06:14.418Z,50.47
2017-07-28T16:08:46.910Z,50.64
2017-07-28T16:11:19.315Z,50.67
2017-07-28T16:13:51.845Z,49.33
2017-07-28T16:16:24.287Z,49.99
2017-07-28T16:18:56.699Z,49.77
2017-07-28T16:21:29.320Z,50.55
2017-07-28T16:24:01.532Z,50.89
2017-07-28T16:26:33.967Z,50.56
2017-07-28T16:29:06.441Z,51.59
2017-07-28T16:31:38.908Z,52.19
2017-07-28T16:34:11.266Z,52.11
2017-07-28T16:36:43.531Z,51.89
2017-07-28T16:39:15.947Z,51.85
2017-07-28T16:41:48.350Z,52.89
2017-07-28T16:44:20.677Z,52.18
2017-07-28T16:46:53.008Z,52.11
2017-07-28T16:49:25.257Z,51.88
2017-07-28T16:51:57.880Z,52.08
2017-07-28T16:54:30.257Z,52.79
2017-07-28T16:57:02.596Z,52.40
2017-07-28T16:59:34.958Z,52.71
2017-07-28T17:02:07.335Z,52.57
2017-07-28T17:04:39.756Z,52.30
2017-07-28T17:07:12.199Z,52.37
2017-07-28T17:09:44.591Z,52.72
2017-07-28T17:12:17.180Z,53.49
2017-07-28T17:14:49.330Z,53.70
2017-07-28T17:17:21.834Z,54.14
2017-07-28T17:19:54.066Z,54.41
2017-07-28T17:22:26.450Z,56.44
2017-07-28T17:24:58.701Z,61.86
2017-07-28T17:27:30.990Z,66.49
2017-07-28T17:30:03.444Z,68.34
2017-07-28T17:32:35.824Z,68.69
2017-07-28T17:35:08.246Z,68.06
2017-07-28T17:37:40.688Z,69.22
2017-07-28T17:40:13.040Z,69.46
2017-07-28T17:42:45.559Z,69.12
2017-07-28T17:45:17.946Z,69.39
2017-07-28T17:47:50.267Z,69.88
2017-07-28T17:50:22.578Z,70.31
2017-07-28T17:52:54.922Z,70.71
2017-07-28T17:55:27.418Z,69.99
2017-07-28T17:57:59.929Z,69.31
2017-07-28T18:00:32.587Z,69.41
2017-07-28T18:03:04.802Z,69.35
2017-07-28T18:05:37.265Z,69.19
2017-07-28T18:08:09.699Z,67.95
2017-07-28T18:10:42.014Z,68.06
2017-07-28T18:13:14.492Z,68.07
2017-07-28T18:15:46.821Z,66.74
2017-07-28T18:18:19.203Z,66.06
2017-07-28T18:20:51.672Z,66.95
2017-07-28T18:23:24.238Z,66.58
2017-07-28T18:25:56.667Z,66.73
2017-07-28T18:28:29.030Z,66.46
2017-07-28T18:31:01.530Z,66.35
2017-07-28T18:33:34.014Z,65.89
2017-07-28T18:36:06.584Z,65.58
2017-07-28T18:38:38.871Z,65.50
2017-07-28T18:41:11.215Z,65.12
2017-07-28T18:43:43.579Z,64.66
2017-07-28T18:46:16.163Z,64.16
2017-07-28T18:48:48.555Z,64.00
2017-07-28T18:51:21.283Z,63.65
2017-07-28T18:53:53.299Z,63.63
2017-07-28T18:56:25.772Z,62.41
2017-07-28T18:58:58.168Z,62.98
2017-07-28T19:01:30.521Z,62.93
2017-07-28T19:04:02.863Z,62.85
2017-07-28T19:06:35.143Z,62.77
2017-07-28T19:09:07.554Z,62.73
2017-07-28T19:11:39.903Z,62.73
2017-07-28T19:14:12.310Z,62.08
2017-07-28T19:16:44.629Z,62.61
2017-07-28T19:19:17.057Z,62.45
2017-07-28T19:21:49.429Z,62.20
2017-07-28T19:24:21.880Z,62.89
2017-07-28T19:26:54.129Z,62.79
2017-07-28T19:29:26.455Z,62.83
2017-07-28T19:31:58.887Z,63.14
2017-07-28T19:34:31.283Z,62.96
2017-07-28T19:37:03.735Z,63.64
2017-07-28T19:39:36.131Z,63.39
2017-07-28T19:42:08.419Z,63.85
2017-07-28T19:44:41.786Z,63.66
2017-07-28T19:47:14.137Z,64.03
2017-07-28T19:49:46.591Z,65.26
2017-07-28T19:52:18.883Z,65.25
2017-07-28T19:54:51.279Z,65.40
2017-07-28T19:57:23.747Z,65.64
2017-07-28T19:59:56.163Z,65.34
2017-07-28T20:02:28.549Z,65.20
2017-07-28T20:05:00.804Z,64.90
2017-07-28T20:07:33.250Z,65.35
2017-07-28T20:10:05.901Z,66.08
2017-07-28T20:12:38.187Z,66.80
2017-07-28T20:15:10.620Z,67.86
2017-07-28T20:17:42.862Z,68.12
2017-07-28T20:20:15.430Z,67.18
2017-07-28T20:22:47.695Z,66.40
2017-07-28T20:25:20.084Z,66.73
2017-07-28T20:27:52.436Z,66.87
2017-07-28T20:30:24.944Z,67.32
2017-07-28T20:32:57.267Z,67.36
2017-07-28T20:35:29.667Z,67.14
2017-07-28T20:38:02.199Z,67.36
2017-07-28T20:40:34.624Z,67.62
2017-07-28T20:43:07.099Z,68.16
2017-07-28T20:45:39.311Z,68.30
2017-07-28T20:48:11.616Z,70.57
2017-07-28T20:50:44.051Z,69.46
2017-07-28T20:53:16.394Z,68.78
2017-07-28T20:55:48.863Z,67.78
2017-07-28T20:58:21.322Z,65.84
2017-07-28T21:00:53.794Z,65.80
2017-07-28T21:03:26.133Z,65.17
2017-07-28T21:05:58.634Z,65.97
2017-07-28T21:08:31.018Z,67.08
2017-07-28T21:11:03.316Z,66.03
2017-07-28T21:13:48.167Z,67.65
2017-07-28T21:16:20.125Z,67.19
2017-07-28T21:18:52.350Z,69.35
2017-07-28T21:21:24.824Z,68.25
2017-07-28T21:23:57.079Z,68.15
2017-07-28T21:26:29.502Z,69.47
2017-07-28T21:29:01.888Z,68.35
2017-07-28T21:31:34.258Z,67.37
2017-07-28T21:34:06.627Z,67.23
2017-07-28T21:36:39.068Z,66.27
2017-07-28T21:39:11.517Z,65.89
2017-07-28T21:41:44.071Z,65.07
2017-07-28T21:44:16.512Z,64.80
2017-07-28T21:46:48.848Z,64.79
2017-07-28T21:49:21.199Z,64.44
2017-07-28T21:51:53.678Z,64.22
2017-07-28T21:54:26.115Z,63.85
2017-07-28T21:56:58.584Z,62.79
2017-07-28T21:59:30.984Z,62.78
2017-07-28T22:02:03.359Z,62.82
2017-07-28T22:04:35.714Z,62.71
2017-07-28T22:07:08.252Z,62.14
2017-07-28T22:09:40.618Z,61.61
2017-07-28T22:12:12.902Z,61.22
2017-07-28T22:14:45.270Z,62.99
2017-07-28T22:17:17.649Z,62.41
2017-07-28T22:19:50.035Z,62.27
2017-07-28T22:22:22.496Z,62.87
2017-07-28T22:24:54.824Z,63.32
2017-07-28T22:27:27.179Z,63.44
2017-07-28T22:29:59.559Z,63.44
2017-07-28T22:32:31.943Z,63.91
2017-07-28T22:35:04.419Z,63.85
2017-07-28T22:37:36.687Z,63.55
2017-07-28T22:40:09.057Z,63.62
2017-07-28T22:42:41.414Z,64.70
2017-07-28T22:45:13.779Z,64.27
2017-07-28T22:47:46.166Z,63.93
2017-07-28T22:50:18.558Z,64.01
2017-07-28T22:52:50.967Z,63.48
2017-07-28T22:55:23.239Z,63.39
2017-07-28T22:57:55.525Z,63.75
2017-07-28T23:00:27.935Z,64.39
2017-07-28T23:03:00.391Z,64.15
2017-07-28T23:05:32.807Z,64.20
2017-07-28T23:08:05.373Z,64.19
2017-07-28T23:10:37.780Z,64.43
2017-07-28T23:13:10.222Z,64.91
2017-07-28T23:15:42.491Z,64.73
2017-07-28T23:18:14.936Z,64.26
2017-07-28T23:20:47.283Z,64.44
2017-07-28T23:23:19.613Z,64.88
2017-07-28T23:25:52.091Z,65.10
2017-07-28T23:28:24.462Z,65.33
2017-07-28T23:30:56.936Z,65.59
2017-07-28T23:33:29.331Z,65.54
2017-07-28T23:36:01.687Z,65.58
2017-07-28T23:38:34.067Z,66.06
2017-07-28T23:41:06.408Z,65.73
2017-07-28T23:43:38.800Z,66.06
2017-07-28T23:46:11.158Z,65.87
2017-07-28T23:48:43.622Z,65.75
2017-07-28T23:51:16.119Z,66.65
2017-07-28T23:53:48.558Z,66.61
2017-07-28T23:56:20.942Z,66.92
2017-07-28T23:58:53.459Z,66.77
